UTA111 USRR-USSS
Flight info
| Callsign | UTA111 |
|---|---|
| Flight time | 1h 24m |
| Altitude | 36000 |
| Route | ANIKI1E ANIKI T764 BEGMA BEGMA6M |
| Aircraft | B738/M-SDE2E3FGHIRWXY/LB1 |
Departure
| Time | 2026-04-25 13:02 |
|---|---|
| Airport | Surgut International Airport (USRR) |
Arrival
| Time | 2026-04-25 14:26 |
|---|---|
| Airport | Koltsovo Airport (USSS) |
| Time | Latitude | Longitude | Altitude | Speed | Heading |
|---|---|---|---|---|---|
| 2026-04-25 12:46 | 61.34119 | 73.40346 | 207 ft | 0 kts | 180° |
| 2026-04-25 12:51 | 61.34122 | 73.40346 | 207 ft | 3 kts | 180° |
| 2026-04-25 12:51 | 61.34139 | 73.40348 | 207 ft | 4 kts | 191° |
| 2026-04-25 12:51 | 61.34170 | 73.40378 | 215 ft | 4 kts | 231° |
| 2026-04-25 12:52 | 61.34180 | 73.40421 | 207 ft | 2 kts | 269° |
| 2026-04-25 12:52 | 61.34180 | 73.40424 | 207 ft | 0 kts | 269° |
| 2026-04-25 12:56 | 61.34180 | 73.40383 | 207 ft | 7 kts | 269° |
| 2026-04-25 12:56 | 61.34179 | 73.40211 | 207 ft | 15 kts | 269° |
| 2026-04-25 12:56 | 61.34178 | 73.39979 | 213 ft | 12 kts | 269° |
| 2026-04-25 12:56 | 61.34178 | 73.39773 | 207 ft | 12 kts | 270° |
| 2026-04-25 12:57 | 61.34177 | 73.39586 | 216 ft | 13 kts | 267° |
| 2026-04-25 12:57 | 61.34177 | 73.39400 | 212 ft | 13 kts | 270° |
| 2026-04-25 12:57 | 61.34176 | 73.39219 | 206 ft | 12 kts | 269° |
| 2026-04-25 12:57 | 61.34175 | 73.39046 | 209 ft | 12 kts | 269° |
| 2026-04-25 12:58 | 61.34174 | 73.38874 | 213 ft | 12 kts | 268° |
| 2026-04-25 12:58 | 61.34173 | 73.38707 | 210 ft | 11 kts | 269° |
| 2026-04-25 12:58 | 61.34172 | 73.38545 | 206 ft | 11 kts | 269° |
| 2026-04-25 12:58 | 61.34171 | 73.38387 | 206 ft | 11 kts | 269° |
| 2026-04-25 12:59 | 61.34183 | 73.38238 | 216 ft | 10 kts | 300° |
| 2026-04-25 12:59 | 61.34235 | 73.38136 | 213 ft | 10 kts | 321° |
| 2026-04-25 12:59 | 61.34294 | 73.38048 | 204 ft | 13 kts | 338° |
| 2026-04-25 12:59 | 61.34380 | 73.37936 | 197 ft | 14 kts | 279° |
| 2026-04-25 13:00 | 61.34385 | 73.37815 | 194 ft | 6 kts | 283° |
| 2026-04-25 13:00 | 61.34393 | 73.37756 | 198 ft | 6 kts | 282° |
| 2026-04-25 13:00 | 61.34380 | 73.37640 | 193 ft | 7 kts | 219° |
| 2026-04-25 13:00 | 61.34366 | 73.37693 | 196 ft | 8 kts | 43° |
| 2026-04-25 13:01 | 61.34382 | 73.37790 | 193 ft | 7 kts | 89° |
| 2026-04-25 13:01 | 61.34382 | 73.38133 | 201 ft | 57 kts | 89° |
| 2026-04-25 13:01 | 61.34386 | 73.39445 | 203 ft | 121 kts | 89° |
| 2026-04-25 13:01 | 61.34391 | 73.41577 | 249 ft | 169 kts | 91° |
| 2026-04-25 13:02 | 61.34378 | 73.44110 | 792 ft | 180 kts | 91° |
| 2026-04-25 13:02 | 61.34489 | 73.46658 | 1638 ft | 175 kts | 65° |
| 2026-04-25 13:02 | 61.35381 | 73.48397 | 2200 ft | 190 kts | 25° |
| 2026-04-25 13:02 | 61.36768 | 73.48531 | 2374 ft | 215 kts | 343° |
| 2026-04-25 13:03 | 61.38002 | 73.46716 | 2656 ft | 222 kts | 306° |
| 2026-04-25 13:03 | 61.38537 | 73.43706 | 2861 ft | 225 kts | 265° |
| 2026-04-25 13:03 | 61.38087 | 73.40667 | 3137 ft | 225 kts | 230° |
| 2026-04-25 13:03 | 61.37105 | 73.38011 | 3337 ft | 240 kts | 230° |
| 2026-04-25 13:04 | 61.36121 | 73.35155 | 3772 ft | 250 kts | 232° |
| 2026-04-25 13:04 | 61.35162 | 73.32186 | 4457 ft | 250 kts | 234° |
| 2026-04-25 13:04 | 61.34198 | 73.29112 | 5133 ft | 252 kts | 236° |
| 2026-04-25 13:04 | 61.33367 | 73.25875 | 5769 ft | 255 kts | 241° |
| 2026-04-25 13:05 | 61.32610 | 73.22590 | 6452 ft | 255 kts | 242° |
| 2026-04-25 13:05 | 61.31837 | 73.19181 | 7132 ft | 258 kts | 243° |
| 2026-04-25 13:05 | 61.31076 | 73.15821 | 7784 ft | 262 kts | 242° |
| 2026-04-25 13:05 | 61.30292 | 73.12401 | 8472 ft | 263 kts | 242° |
| 2026-04-25 13:06 | 61.29493 | 73.08940 | 9113 ft | 267 kts | 242° |
| 2026-04-25 13:06 | 61.28670 | 73.05391 | 9796 ft | 269 kts | 242° |
| 2026-04-25 13:06 | 61.27852 | 73.01881 | 10211 ft | 283 kts | 242° |
| 2026-04-25 13:06 | 61.26957 | 72.98059 | 10380 ft | 303 kts | 243° |
| 2026-04-25 13:07 | 61.26002 | 72.93991 | 10543 ft | 323 kts | 243° |
| 2026-04-25 13:07 | 61.24989 | 72.89682 | 10746 ft | 339 kts | 243° |
| 2026-04-25 13:07 | 61.23943 | 72.85235 | 11263 ft | 345 kts | 243° |
| 2026-04-25 13:07 | 61.22890 | 72.80772 | 11977 ft | 344 kts | 243° |
| 2026-04-25 13:08 | 61.21836 | 72.76313 | 12739 ft | 344 kts | 243° |
| 2026-04-25 13:08 | 61.20780 | 72.71853 | 13402 ft | 346 kts | 243° |
| 2026-04-25 13:08 | 61.19715 | 72.67376 | 14072 ft | 347 kts | 243° |
| 2026-04-25 13:08 | 61.18639 | 72.62865 | 14700 ft | 350 kts | 242° |
| 2026-04-25 13:09 | 61.17557 | 72.58336 | 15369 ft | 351 kts | 242° |
| 2026-04-25 13:09 | 61.16468 | 72.53788 | 16013 ft | 353 kts | 242° |
| 2026-04-25 13:09 | 61.15373 | 72.49221 | 16642 ft | 355 kts | 242° |
| 2026-04-25 13:09 | 61.14270 | 72.44634 | 17257 ft | 357 kts | 242° |
| 2026-04-25 13:10 | 61.13156 | 72.40011 | 17805 ft | 360 kts | 242° |
| 2026-04-25 13:10 | 61.12034 | 72.35361 | 18359 ft | 362 kts | 242° |
| 2026-04-25 13:10 | 61.10905 | 72.30693 | 18927 ft | 364 kts | 242° |
| 2026-04-25 13:10 | 61.09768 | 72.26002 | 19437 ft | 367 kts | 242° |
| 2026-04-25 13:11 | 61.08619 | 72.21273 | 19929 ft | 369 kts | 242° |
| 2026-04-25 13:11 | 61.07462 | 72.16523 | 20435 ft | 371 kts | 242° |
| 2026-04-25 13:11 | 61.06297 | 72.11746 | 20908 ft | 374 kts | 242° |
| 2026-04-25 13:11 | 61.05123 | 72.06944 | 21370 ft | 376 kts | 242° |
| 2026-04-25 13:12 | 61.03941 | 72.02117 | 21820 ft | 378 kts | 242° |
| 2026-04-25 13:12 | 61.02750 | 71.97257 | 22254 ft | 380 kts | 242° |
| 2026-04-25 13:12 | 61.01554 | 71.92395 | 22705 ft | 381 kts | 242° |
| 2026-04-25 13:12 | 61.00756 | 71.89162 | 22992 ft | 382 kts | 242° |
| 2026-04-25 13:13 | 60.99114 | 71.82619 | 23512 ft | 385 kts | 240° |
| 2026-04-25 13:13 | 60.97846 | 71.77761 | 23946 ft | 386 kts | 240° |
| 2026-04-25 13:13 | 60.96563 | 71.72900 | 24306 ft | 388 kts | 240° |
| 2026-04-25 13:13 | 60.95269 | 71.68011 | 24646 ft | 390 kts | 240° |
| 2026-04-25 13:14 | 60.93967 | 71.63084 | 25024 ft | 392 kts | 240° |
| 2026-04-25 13:14 | 60.92666 | 71.58154 | 25349 ft | 394 kts | 240° |
| 2026-04-25 13:14 | 60.91356 | 71.53194 | 25707 ft | 395 kts | 240° |
| 2026-04-25 13:14 | 60.90059 | 71.48292 | 26017 ft | 397 kts | 240° |
| 2026-04-25 13:15 | 60.88740 | 71.43309 | 26330 ft | 398 kts | 240° |
| 2026-04-25 13:15 | 60.87413 | 71.38309 | 26641 ft | 399 kts | 240° |
| 2026-04-25 13:15 | 60.86080 | 71.33302 | 26940 ft | 401 kts | 240° |
| 2026-04-25 13:15 | 60.84742 | 71.28282 | 27206 ft | 402 kts | 240° |
| 2026-04-25 13:16 | 60.83399 | 71.23241 | 27495 ft | 403 kts | 240° |
| 2026-04-25 13:16 | 60.82052 | 71.18191 | 27797 ft | 404 kts | 240° |
| 2026-04-25 13:16 | 60.80705 | 71.13147 | 28196 ft | 402 kts | 240° |
| 2026-04-25 13:16 | 60.79371 | 71.08160 | 28684 ft | 398 kts | 240° |
| 2026-04-25 13:17 | 60.78046 | 71.03215 | 29132 ft | 395 kts | 240° |
| 2026-04-25 13:17 | 60.76723 | 70.98294 | 29471 ft | 394 kts | 240° |
| 2026-04-25 13:17 | 60.75404 | 70.93396 | 29805 ft | 393 kts | 240° |
| 2026-04-25 13:17 | 60.74083 | 70.88501 | 30159 ft | 392 kts | 239° |
| 2026-04-25 13:18 | 60.72769 | 70.83643 | 30562 ft | 389 kts | 239° |
| 2026-04-25 13:18 | 60.71460 | 70.78814 | 30877 ft | 389 kts | 239° |
| 2026-04-25 13:18 | 60.70145 | 70.73972 | 31126 ft | 390 kts | 239° |
| 2026-04-25 13:18 | 60.68829 | 70.69137 | 31365 ft | 391 kts | 239° |
| 2026-04-25 13:19 | 60.67508 | 70.64294 | 31670 ft | 389 kts | 239° |
| 2026-04-25 13:19 | 60.66195 | 70.59483 | 31998 ft | 388 kts | 239° |
| 2026-04-25 13:19 | 60.64881 | 70.54685 | 32261 ft | 388 kts | 239° |
| 2026-04-25 13:19 | 60.64008 | 70.51506 | 32418 ft | 388 kts | 239° |
| 2026-04-25 13:20 | 60.62177 | 70.45167 | 32763 ft | 387 kts | 236° |
| 2026-04-25 13:20 | 60.60720 | 70.40575 | 33097 ft | 385 kts | 235° |
| 2026-04-25 13:20 | 60.59246 | 70.36023 | 33314 ft | 386 kts | 235° |
| 2026-04-25 13:20 | 60.57762 | 70.31463 | 33467 ft | 388 kts | 235° |
| 2026-04-25 13:21 | 60.56276 | 70.26895 | 33765 ft | 385 kts | 235° |
| 2026-04-25 13:21 | 60.54826 | 70.22427 | 34096 ft | 383 kts | 235° |
| 2026-04-25 13:21 | 60.53341 | 70.17842 | 34265 ft | 384 kts | 235° |
| 2026-04-25 13:21 | 60.51864 | 70.13288 | 34350 ft | 387 kts | 235° |
| 2026-04-25 13:22 | 60.50381 | 70.08720 | 34558 ft | 387 kts | 235° |
| 2026-04-25 13:22 | 60.48921 | 70.04227 | 34796 ft | 386 kts | 235° |
| 2026-04-25 13:22 | 60.47420 | 69.99616 | 34958 ft | 388 kts | 235° |
| 2026-04-25 13:23 | 60.44426 | 69.90447 | 35235 ft | 391 kts | 235° |
| 2026-04-25 13:23 | 60.42941 | 69.85933 | 35394 ft | 391 kts | 235° |
| 2026-04-25 13:23 | 60.41436 | 69.81340 | 35516 ft | 393 kts | 236° |
| 2026-04-25 13:23 | 60.39933 | 69.76774 | 35689 ft | 387 kts | 234° |
| 2026-04-25 13:24 | 60.38433 | 69.72174 | 35681 ft | 392 kts | 235° |
| 2026-04-25 13:24 | 60.35376 | 69.62912 | 35710 ft | 399 kts | 234° |
| 2026-04-25 13:25 | 60.32261 | 69.53550 | 35707 ft | 403 kts | 235° |
| 2026-04-25 13:25 | 60.29124 | 69.44119 | 35702 ft | 406 kts | 235° |
| 2026-04-25 13:26 | 60.25969 | 69.34654 | 35700 ft | 407 kts | 234° |
| 2026-04-25 13:26 | 60.22780 | 69.25137 | 35702 ft | 408 kts | 234° |
| 2026-04-25 13:27 | 60.19624 | 69.15755 | 35699 ft | 408 kts | 234° |
| 2026-04-25 13:27 | 60.16457 | 69.06378 | 35703 ft | 407 kts | 234° |
| 2026-04-25 13:28 | 60.13293 | 68.97049 | 35697 ft | 407 kts | 234° |
| 2026-04-25 13:28 | 60.10112 | 68.87706 | 35692 ft | 406 kts | 234° |
| 2026-04-25 13:29 | 60.06921 | 68.78369 | 35691 ft | 406 kts | 234° |
| 2026-04-25 13:29 | 60.03822 | 68.69339 | 35692 ft | 405 kts | 233° |
| 2026-04-25 13:30 | 59.99095 | 68.55627 | 35698 ft | 405 kts | 233° |
| 2026-04-25 13:31 | 59.94291 | 68.41766 | 35701 ft | 404 kts | 233° |
| 2026-04-25 13:31 | 59.91079 | 68.32555 | 35703 ft | 405 kts | 233° |
| 2026-04-25 13:32 | 59.87856 | 68.23376 | 35702 ft | 404 kts | 233° |
| 2026-04-25 13:32 | 59.84637 | 68.14253 | 35703 ft | 404 kts | 233° |
| 2026-04-25 13:33 | 59.81382 | 68.05056 | 35699 ft | 404 kts | 233° |
| 2026-04-25 13:33 | 59.78156 | 67.95969 | 35705 ft | 405 kts | 233° |
| 2026-04-25 13:34 | 59.74907 | 67.86854 | 35705 ft | 405 kts | 233° |
| 2026-04-25 13:34 | 59.71647 | 67.77745 | 35698 ft | 405 kts | 233° |
| 2026-04-25 13:35 | 59.68381 | 67.68649 | 35704 ft | 405 kts | 232° |
| 2026-04-25 13:35 | 59.65643 | 67.61053 | 35702 ft | 404 kts | 232° |
| 2026-04-25 13:36 | 59.62404 | 67.52098 | 35703 ft | 404 kts | 232° |
| 2026-04-25 13:36 | 59.59144 | 67.43120 | 35703 ft | 404 kts | 232° |
| 2026-04-25 13:37 | 59.55868 | 67.34130 | 35702 ft | 403 kts | 232° |
| 2026-04-25 13:37 | 59.52590 | 67.25172 | 35705 ft | 403 kts | 232° |
| 2026-04-25 13:38 | 59.49292 | 67.16191 | 35715 ft | 402 kts | 232° |
| 2026-04-25 13:38 | 59.46028 | 67.07338 | 35714 ft | 402 kts | 232° |
| 2026-04-25 13:39 | 59.42741 | 66.98449 | 35714 ft | 402 kts | 232° |
| 2026-04-25 13:39 | 59.39439 | 66.89557 | 35714 ft | 402 kts | 232° |
| 2026-04-25 13:40 | 59.36168 | 66.80780 | 35708 ft | 402 kts | 232° |
| 2026-04-25 13:40 | 59.33004 | 66.72093 | 35714 ft | 402 kts | 232° |
| 2026-04-25 13:41 | 59.29780 | 66.63154 | 35715 ft | 402 kts | 232° |
| 2026-04-25 13:41 | 59.26901 | 66.55205 | 35711 ft | 402 kts | 232° |
| 2026-04-25 13:42 | 59.24573 | 66.48808 | 35702 ft | 402 kts | 232° |
| 2026-04-25 13:42 | 59.21460 | 66.40293 | 35703 ft | 402 kts | 232° |
| 2026-04-25 13:43 | 59.18124 | 66.31209 | 35705 ft | 402 kts | 232° |
| 2026-04-25 13:43 | 59.14909 | 66.22485 | 35705 ft | 402 kts | 232° |
| 2026-04-25 13:44 | 59.11653 | 66.13677 | 35715 ft | 401 kts | 232° |
| 2026-04-25 13:44 | 59.08383 | 66.04873 | 35712 ft | 401 kts | 232° |
| 2026-04-25 13:45 | 59.05667 | 65.97583 | 35712 ft | 401 kts | 232° |
| 2026-04-25 13:45 | 59.01874 | 65.87440 | 35717 ft | 401 kts | 232° |
| 2026-04-25 13:46 | 58.98553 | 65.78595 | 35712 ft | 401 kts | 232° |
| 2026-04-25 13:46 | 58.95264 | 65.69865 | 35709 ft | 401 kts | 232° |
| 2026-04-25 13:47 | 58.91972 | 65.61156 | 35711 ft | 400 kts | 232° |
| 2026-04-25 13:47 | 58.88679 | 65.52481 | 35710 ft | 401 kts | 231° |
| 2026-04-25 13:48 | 58.85374 | 65.43807 | 35716 ft | 401 kts | 231° |
| 2026-04-25 13:48 | 58.82062 | 65.35145 | 35712 ft | 401 kts | 231° |
| 2026-04-25 13:49 | 58.78766 | 65.26557 | 35709 ft | 401 kts | 231° |
| 2026-04-25 13:49 | 58.75442 | 65.17926 | 35695 ft | 401 kts | 231° |
| 2026-04-25 13:50 | 58.72109 | 65.09306 | 35694 ft | 401 kts | 231° |
| 2026-04-25 13:50 | 58.68773 | 65.00705 | 35694 ft | 401 kts | 231° |
| 2026-04-25 13:51 | 58.65429 | 64.92113 | 35692 ft | 401 kts | 231° |
| 2026-04-25 13:51 | 58.62080 | 64.83535 | 35695 ft | 401 kts | 231° |
| 2026-04-25 13:52 | 58.58705 | 64.75009 | 35692 ft | 401 kts | 230° |
| 2026-04-25 13:52 | 58.55272 | 64.66584 | 35694 ft | 401 kts | 230° |
| 2026-04-25 13:53 | 58.51832 | 64.58177 | 35695 ft | 401 kts | 230° |
| 2026-04-25 13:53 | 58.48397 | 64.49791 | 35690 ft | 401 kts | 230° |
| 2026-04-25 13:54 | 58.44960 | 64.41416 | 35694 ft | 400 kts | 230° |
| 2026-04-25 13:54 | 58.41524 | 64.33069 | 35695 ft | 400 kts | 229° |
| 2026-04-25 13:55 | 58.38084 | 64.24743 | 35693 ft | 399 kts | 229° |
| 2026-04-25 13:55 | 58.34644 | 64.16447 | 35695 ft | 399 kts | 229° |
| 2026-04-25 13:56 | 58.31197 | 64.08158 | 35693 ft | 399 kts | 229° |
| 2026-04-25 13:56 | 58.27753 | 63.99908 | 35695 ft | 398 kts | 229° |
| 2026-04-25 13:57 | 58.24216 | 63.91809 | 35693 ft | 398 kts | 227° |
| 2026-04-25 13:57 | 58.20616 | 63.83832 | 35695 ft | 398 kts | 227° |
| 2026-04-25 13:58 | 58.17022 | 63.75843 | 35694 ft | 399 kts | 227° |
| 2026-04-25 13:58 | 58.13471 | 63.67957 | 35692 ft | 399 kts | 227° |
| 2026-04-25 13:59 | 58.09872 | 63.59969 | 35690 ft | 399 kts | 227° |
| 2026-04-25 13:59 | 58.06313 | 63.51922 | 35694 ft | 399 kts | 228° |
| 2026-04-25 14:00 | 58.02758 | 63.43844 | 35683 ft | 400 kts | 228° |
| 2026-04-25 14:00 | 57.99194 | 63.35781 | 35576 ft | 401 kts | 227° |
| 2026-04-25 14:00 | 57.97405 | 63.31746 | 35118 ft | 398 kts | 227° |
| 2026-04-25 14:01 | 57.95630 | 63.27749 | 34228 ft | 400 kts | 227° |
| 2026-04-25 14:01 | 57.93867 | 63.23787 | 33997 ft | 388 kts | 227° |
| 2026-04-25 14:01 | 57.92155 | 63.19945 | 33327 ft | 387 kts | 227° |
| 2026-04-25 14:01 | 57.90494 | 63.16228 | 32957 ft | 380 kts | 227° |
| 2026-04-25 14:02 | 57.88781 | 63.12400 | 32524 ft | 374 kts | 227° |
| 2026-04-25 14:02 | 57.87118 | 63.08688 | 32065 ft | 369 kts | 226° |
| 2026-04-25 14:02 | 57.85474 | 63.05027 | 31653 ft | 363 kts | 226° |
| 2026-04-25 14:02 | 57.84927 | 63.03810 | 31506 ft | 361 kts | 226° |
| 2026-04-25 14:03 | 57.82268 | 62.97897 | 30834 ft | 351 kts | 226° |
| 2026-04-25 14:03 | 57.80703 | 62.94426 | 30439 ft | 345 kts | 226° |
| 2026-04-25 14:03 | 57.79167 | 62.91022 | 30046 ft | 339 kts | 226° |
| 2026-04-25 14:03 | 57.77676 | 62.87721 | 29670 ft | 333 kts | 226° |
| 2026-04-25 14:04 | 57.76175 | 62.84404 | 29268 ft | 327 kts | 226° |
| 2026-04-25 14:04 | 57.74716 | 62.81187 | 28854 ft | 322 kts | 226° |
| 2026-04-25 14:04 | 57.73276 | 62.78016 | 28461 ft | 317 kts | 225° |
| 2026-04-25 14:04 | 57.71857 | 62.74898 | 28071 ft | 313 kts | 225° |
| 2026-04-25 14:05 | 57.70462 | 62.71848 | 27828 ft | 304 kts | 225° |
| 2026-04-25 14:05 | 57.69114 | 62.68909 | 27579 ft | 302 kts | 225° |
| 2026-04-25 14:05 | 57.67728 | 62.65900 | 27345 ft | 310 kts | 225° |
| 2026-04-25 14:05 | 57.66570 | 62.63388 | 27145 ft | 315 kts | 225° |
| 2026-04-25 14:06 | 57.65140 | 62.60283 | 26893 ft | 314 kts | 225° |
| 2026-04-25 14:06 | 57.63728 | 62.57213 | 26637 ft | 311 kts | 225° |
| 2026-04-25 14:06 | 57.62331 | 62.54177 | 26287 ft | 306 kts | 225° |
| 2026-04-25 14:06 | 57.60950 | 62.51183 | 25891 ft | 302 kts | 225° |
| 2026-04-25 14:07 | 57.59588 | 62.48233 | 25508 ft | 298 kts | 225° |
| 2026-04-25 14:07 | 57.58239 | 62.45315 | 25106 ft | 295 kts | 225° |
| 2026-04-25 14:07 | 57.56904 | 62.42430 | 24723 ft | 293 kts | 225° |
| 2026-04-25 14:07 | 57.55585 | 62.39584 | 24356 ft | 289 kts | 225° |
| 2026-04-25 14:08 | 57.54274 | 62.36758 | 23960 ft | 287 kts | 225° |
| 2026-04-25 14:08 | 57.53124 | 62.34281 | 23644 ft | 284 kts | 225° |
| 2026-04-25 14:08 | 57.51839 | 62.31517 | 23254 ft | 282 kts | 225° |
| 2026-04-25 14:08 | 57.50560 | 62.28769 | 22886 ft | 280 kts | 225° |
| 2026-04-25 14:09 | 57.49288 | 62.26040 | 22520 ft | 279 kts | 225° |
| 2026-04-25 14:09 | 57.48012 | 62.23309 | 22150 ft | 282 kts | 225° |
| 2026-04-25 14:09 | 57.46699 | 62.20507 | 21789 ft | 293 kts | 225° |
| 2026-04-25 14:09 | 57.46244 | 62.19540 | 21690 ft | 293 kts | 225° |
| 2026-04-25 14:10 | 57.44208 | 62.15219 | 20985 ft | 294 kts | 225° |
| 2026-04-25 14:10 | 57.42857 | 62.12355 | 20471 ft | 295 kts | 225° |
| 2026-04-25 14:10 | 57.41503 | 62.09491 | 19976 ft | 295 kts | 226° |
| 2026-04-25 14:10 | 57.40151 | 62.06628 | 19531 ft | 294 kts | 226° |
| 2026-04-25 14:11 | 57.38808 | 62.03786 | 19123 ft | 292 kts | 226° |
| 2026-04-25 14:11 | 57.37473 | 62.00961 | 18738 ft | 290 kts | 226° |
| 2026-04-25 14:11 | 57.36151 | 61.98172 | 18366 ft | 287 kts | 226° |
| 2026-04-25 14:11 | 57.34838 | 61.95410 | 18004 ft | 284 kts | 226° |
| 2026-04-25 14:12 | 57.33539 | 61.92682 | 17628 ft | 282 kts | 225° |
| 2026-04-25 14:12 | 57.32219 | 61.90037 | 17125 ft | 284 kts | 224° |
| 2026-04-25 14:12 | 57.30870 | 61.87424 | 16738 ft | 283 kts | 224° |
| 2026-04-25 14:12 | 57.29530 | 61.84846 | 16379 ft | 281 kts | 224° |
| 2026-04-25 14:13 | 57.28197 | 61.82280 | 16008 ft | 279 kts | 224° |
| 2026-04-25 14:13 | 57.26837 | 61.79656 | 15648 ft | 277 kts | 224° |
| 2026-04-25 14:13 | 57.25533 | 61.77139 | 15326 ft | 274 kts | 224° |
| 2026-04-25 14:13 | 57.24216 | 61.74595 | 14981 ft | 272 kts | 224° |
| 2026-04-25 14:14 | 57.22909 | 61.72073 | 14630 ft | 271 kts | 224° |
| 2026-04-25 14:14 | 57.21601 | 61.69547 | 14289 ft | 274 kts | 225° |
| 2026-04-25 14:14 | 57.20283 | 61.67004 | 13913 ft | 276 kts | 225° |
| 2026-04-25 14:14 | 57.18931 | 61.64399 | 13397 ft | 283 kts | 225° |
| 2026-04-25 14:15 | 57.17562 | 61.61761 | 12885 ft | 287 kts | 225° |
| 2026-04-25 14:15 | 57.17093 | 61.60859 | 12719 ft | 288 kts | 225° |
| 2026-04-25 14:15 | 57.14785 | 61.56424 | 11946 ft | 290 kts | 225° |
| 2026-04-25 14:15 | 57.13388 | 61.53743 | 11564 ft | 289 kts | 225° |
| 2026-04-25 14:16 | 57.12000 | 61.51078 | 11181 ft | 287 kts | 225° |
| 2026-04-25 14:16 | 57.10620 | 61.48432 | 10809 ft | 286 kts | 225° |
| 2026-04-25 14:16 | 57.09227 | 61.45767 | 10429 ft | 285 kts | 225° |
| 2026-04-25 14:16 | 57.07880 | 61.43188 | 10168 ft | 280 kts | 225° |
| 2026-04-25 14:17 | 57.06556 | 61.40656 | 10026 ft | 271 kts | 225° |
| 2026-04-25 14:17 | 57.05269 | 61.38202 | 9900 ft | 262 kts | 225° |
| 2026-04-25 14:17 | 57.04026 | 61.35838 | 9786 ft | 253 kts | 225° |
| 2026-04-25 14:17 | 57.02823 | 61.33553 | 9674 ft | 244 kts | 225° |
| 2026-04-25 14:18 | 57.01660 | 61.31337 | 9403 ft | 242 kts | 225° |
| 2026-04-25 14:18 | 57.00505 | 61.29135 | 9152 ft | 240 kts | 225° |
| 2026-04-25 14:18 | 56.99366 | 61.26967 | 8888 ft | 239 kts | 225° |
| 2026-04-25 14:18 | 56.98214 | 61.24783 | 8628 ft | 238 kts | 224° |
| 2026-04-25 14:19 | 56.97068 | 61.22612 | 8358 ft | 236 kts | 225° |
| 2026-04-25 14:19 | 56.95928 | 61.20457 | 8095 ft | 235 kts | 224° |
| 2026-04-25 14:19 | 56.94789 | 61.18309 | 7828 ft | 234 kts | 224° |
| 2026-04-25 14:19 | 56.93442 | 61.16690 | 7502 ft | 235 kts | 200° |
| 2026-04-25 14:20 | 56.91845 | 61.15988 | 7215 ft | 242 kts | 192° |
| 2026-04-25 14:20 | 56.91279 | 61.15792 | 7097 ft | 246 kts | 192° |
| 2026-04-25 14:20 | 56.88468 | 61.14844 | 6502 ft | 250 kts | 192° |
| 2026-04-25 14:20 | 56.86763 | 61.14279 | 6135 ft | 251 kts | 192° |
| 2026-04-25 14:21 | 56.85040 | 61.13704 | 5762 ft | 252 kts | 192° |
| 2026-04-25 14:21 | 56.83311 | 61.13113 | 5396 ft | 253 kts | 192° |
| 2026-04-25 14:21 | 56.81576 | 61.12521 | 5048 ft | 254 kts | 192° |
| 2026-04-25 14:21 | 56.79836 | 61.11925 | 4686 ft | 255 kts | 192° |
| 2026-04-25 14:22 | 56.78676 | 61.11527 | 4437 ft | 255 kts | 192° |
| 2026-04-25 14:22 | 56.76957 | 61.10940 | 4071 ft | 248 kts | 192° |
| 2026-04-25 14:22 | 56.75327 | 61.10388 | 4060 ft | 229 kts | 192° |
| 2026-04-25 14:22 | 56.73879 | 61.09470 | 3770 ft | 218 kts | 219° |
| 2026-04-25 14:23 | 56.73112 | 61.07249 | 3505 ft | 210 kts | 257° |
| 2026-04-25 14:23 | 56.73128 | 61.04667 | 3248 ft | 201 kts | 270° |
| 2026-04-25 14:23 | 56.73231 | 61.02209 | 2937 ft | 188 kts | 270° |
| 2026-04-25 14:23 | 56.73360 | 60.99906 | 2609 ft | 176 kts | 271° |
| 2026-04-25 14:24 | 56.73455 | 60.97784 | 2395 ft | 160 kts | 270° |
| 2026-04-25 14:24 | 56.73530 | 60.95832 | 2173 ft | 152 kts | 270° |
| 2026-04-25 14:24 | 56.73603 | 60.93906 | 1977 ft | 153 kts | 271° |
| 2026-04-25 14:24 | 56.73678 | 60.91969 | 1767 ft | 153 kts | 271° |
| 2026-04-25 14:25 | 56.73752 | 60.90040 | 1568 ft | 153 kts | 271° |
| 2026-04-25 14:25 | 56.73825 | 60.88101 | 1360 ft | 153 kts | 271° |
| 2026-04-25 14:25 | 56.73895 | 60.86164 | 1147 ft | 153 kts | 271° |
| 2026-04-25 14:25 | 56.73946 | 60.84898 | 1025 ft | 152 kts | 271° |
| 2026-04-25 14:26 | 56.74056 | 60.82327 | 809 ft | 152 kts | 272° |
| 2026-04-25 14:26 | 56.74124 | 60.80538 | 774 ft | 124 kts | 275° |
| 2026-04-25 14:26 | 56.74175 | 60.79284 | 773 ft | 60 kts | 274° |
| 2026-04-25 14:26 | 56.74194 | 60.78839 | 773 ft | 30 kts | 274° |
| 2026-04-25 14:27 | 56.74209 | 60.78497 | 773 ft | 21 kts | 274° |
| 2026-04-25 14:27 | 56.74218 | 60.78281 | 773 ft | 14 kts | 274° |
| 2026-04-25 14:27 | 56.74225 | 60.78108 | 773 ft | 8 kts | 275° |
| 2026-04-25 14:27 | 56.74225 | 60.78098 | 773 ft | 2 kts | 275° |
| 2026-04-25 14:28 | 56.74229 | 60.78048 | 773 ft | 6 kts | 283° |
| 2026-04-25 14:28 | 56.74274 | 60.78008 | 773 ft | 10 kts | 11° |
| 2026-04-25 14:28 | 56.74346 | 60.78064 | 773 ft | 13 kts | 25° |
| 2026-04-25 14:28 | 56.74437 | 60.78139 | 773 ft | 13 kts | 18° |
| 2026-04-25 14:29 | 56.74531 | 60.78148 | 773 ft | 14 kts | 1° |
| 2026-04-25 14:29 | 56.74623 | 60.78149 | 773 ft | 13 kts | 1° |
| 2026-04-25 14:29 | 56.74662 | 60.78244 | 773 ft | 11 kts | 88° |
| 2026-04-25 14:29 | 56.74662 | 60.78375 | 773 ft | 10 kts | 90° |
| 2026-04-25 14:30 | 56.74663 | 60.78477 | 773 ft | 10 kts | 90° |
| 2026-04-25 14:30 | 56.74662 | 60.78715 | 773 ft | 9 kts | 90° |
| 2026-04-25 14:30 | 56.74662 | 60.78827 | 773 ft | 9 kts | 90° |
| 2026-04-25 14:31 | 56.74662 | 60.78941 | 773 ft | 9 kts | 90° |
| 2026-04-25 14:31 | 56.74662 | 60.79053 | 773 ft | 9 kts | 90° |
| 2026-04-25 14:31 | 56.74671 | 60.79157 | 773 ft | 8 kts | 59° |
| 2026-04-25 14:31 | 56.74722 | 60.79188 | 773 ft | 8 kts | 359° |
| 2026-04-25 14:32 | 56.74778 | 60.79188 | 773 ft | 8 kts | 360° |
| 2026-04-25 14:32 | 56.74833 | 60.79190 | 773 ft | 8 kts | 8° |
| 2026-04-25 14:32 | 56.74857 | 60.79266 | 773 ft | 7 kts | 85° |
| 2026-04-25 14:32 | 56.74857 | 60.79360 | 773 ft | 7 kts | 90° |
| 2026-04-25 14:33 | 56.74857 | 60.79450 | 773 ft | 7 kts | 90° |
| 2026-04-25 14:33 | 56.74857 | 60.79538 | 773 ft | 7 kts | 90° |
| 2026-04-25 14:33 | 56.74856 | 60.79622 | 773 ft | 7 kts | 90° |
| 2026-04-25 14:33 | 56.74854 | 60.79706 | 773 ft | 7 kts | 91° |
| 2026-04-25 14:34 | 56.74854 | 60.79789 | 773 ft | 6 kts | 89° |
| 2026-04-25 14:34 | 56.74854 | 60.79869 | 773 ft | 6 kts | 89° |
| 2026-04-25 14:34 | 56.74856 | 60.79923 | 773 ft | 3 kts | 98° |
| 2026-04-25 14:34 | 56.74854 | 60.79965 | 773 ft | 3 kts | 93° |
| 2026-04-25 14:35 | 56.74855 | 60.80004 | 774 ft | 3 kts | 81° |
| 2026-04-25 14:35 | 56.74868 | 60.80037 | 774 ft | 3 kts | 32° |
| 2026-04-25 14:35 | 56.74890 | 60.80044 | 774 ft | 3 kts | 4° |
| 2026-04-25 14:35 | 56.74912 | 60.80045 | 774 ft | 3 kts | 0° |
| 2026-04-25 14:36 | 56.74927 | 60.80045 | 774 ft | 0 kts | 0° |
| 2026-04-25 14:36 | 56.74928 | 60.80045 | 774 ft | 1 kts | 0° |
| 2026-04-25 14:36 | 56.74929 | 60.80045 | 774 ft | 0 kts | 0° |